Погода METAR - Новосибирск (Толмачево)

Кемерово, Абакан, Красноярск, Новосибирск
Код METAR: UNNT 021800Z 30001MPS 4600 BR NSC M25/M28 Q1027 R07/820250 R34/////// NOSIG RMK QFE760/1014

Погода - Сейчас

Время: 2023-02-03 01:00, местное
Направление ветра: Северо-запад (300°)
Скорость ветра: 1 м/с
Видимость:
Температура: -25°C
Точка росы: -28°C
Атмосферное давление: 1027 гПа

Архив погоды

Время, местное Направление Скорость, м/с Температура, °C Точка росы, °C Давление, гПа
2023-02-03 01:00 СЗ (300°) 1 -25 -28 1027
2023-02-01 21:30 ЗЮЗ (260°) 1 -22 -25 1031
2023-02-01 02:00 Ю (170°) 1 -21 -24 1028
2023-01-31 19:00 Ю (170°) 3 -12 -15 1027
2023-01-31 18:00 ЮЮВ (160°) 4 -11 -15 1027
2023-01-30 15:30 ЗЮЗ (240°) 3 -7 -10 1026
2023-01-28 13:30 ЮЗ (210°) 7 -9 -11 1019
2023-01-24 17:30 ЗЮЗ (250°) 6 -6 -8 1021
2023-01-24 15:00 ЗЮЗ (260°) 6 -6 -8 1021
2023-01-23 17:00 ЮЗ (210°) 4 -10 -13 1023
2023-01-22 04:00 Переменный 1 -36 -40 1052
2023-01-21 19:30 ССВ (20°) 2 -30 -33 1052
2023-01-20 23:00 ССВ (20°) 5 -20 -23 1036
2023-01-15 09:00 ЮЗ (230°) 6 -11 -14 1024
2023-01-15 22:30 ЗЮЗ (240°) 4 -10 -13 1032
2023-01-14 02:30 ЮЗ (210°) 8 -14 -17 1036
2023-01-13 23:00 ЮЗ (220°) 6 -15 -18 1036
2023-01-12 07:30 Ю (170°) 3 -33 -36 1042
2023-01-11 21:00 Ю (190°) 3 -32 -36 1039
2023-01-08 16:00 ЮВ (140°) 6 -1 -3 1002
2023-01-08 11:00 Ю (180°) 5 -3 -7 1008
2023-01-06 15:00 СЗ (310°) 4 -14 -16 1009
2023-01-05 19:30 З (270°) 4 -2 -4 1004
2023-01-04 14:00 Ю (180°) 6 -3 -8 1005
2023-01-03 10:30 ЮЮВ (160°) 5 -10 -12 1020
2023-01-01 09:00 ЮЮВ (150°) 4 -6 -7 1028
2022-12-30 21:30 ЮЮВ (160°) 2 -19 -21 1034
2022-12-28 17:00 ЮЗ (220°) 3 -11 -16 1022
2022-12-27 11:30 Ю (170°) 4 -14 -18 1034
2022-12-25 20:30 Ю (190°) 6 -6 -8 1029
2022-12-25 04:00 ЮЮЗ (200°) 3 -7 -9 1031
2022-12-25 03:30 ЮЮЗ (200°) 4 -7 -9 1031
2022-12-23 02:30 З (270°) 3 -19 -22 1033
2022-12-20 02:00 Ю (170°) 3 -7 -9 1016
2022-12-19 13:30 ЮЮВ (160°) 7 -16 -19 1032
2022-12-18 03:00 Ю (190°) 2 -20 -23 1027
2022-12-17 19:00 Ю (180°) 1 -20 -23 1030
2022-12-12 08:30 СЗ (310°) 1 -31 -34 1039
2022-12-16 17:00 ЮЮВ (150°) 2 -17 -21 1045
2022-12-15 19:00 ЮВ (120°) 2 -21 -25 1054
2022-12-15 13:00 Переменный 1 -24 -27 1053
2022-12-14 09:00 ЗСЗ (290°) 2 -29 -32 1042
2022-12-13 01:30 ЮЮЗ (200°) 6 -12 -14 1019
2022-12-11 03:30 ЗЮЗ (250°) 3 -21 -23 1033
2022-12-10 06:00 ЮЮЗ (200°) 4 -21 -24 1031
2022-12-07 09:00 ЮЮЗ (200°) 4 -21 -24 1040
2022-12-05 22:00 Штиль 0 -23 -26 1040
2022-12-05 00:30 С (350°) 2 -27 -30 1036